Time;durP1;ratioP1;P1;durP2;ratioP2;P2;SDS_P1;SDS_P2;PMS_P1;PMS_P2;Temp;Humidity;BMP_temperature;BMP_pressure;BME280_temperature;BME280_humidity;BME280_pressure;Samples;Min_cycle;Max_cycle;Signal;HPM_P1;HPM_P2
2022/11/22 00:01:24;;;;;;;35.58;5.57;;;;;;;;;;6308661;22;20076;-95
2022/11/22 00:03:50;;;;;;;16.48;3.80;;;;;;;;;;6308558;22;19991;-96
2022/11/22 00:06:16;;;;;;;79.60;8.05;;;;;;;;;;6308027;22;20306;-96
2022/11/22 00:08:50;;;;;;;16.33;4.85;;;;;;;;;;6281183;22;20003;-96
2022/11/22 00:11:15;;;;;;;23.13;5.28;;;;;;;;;;6308162;22;20007;-96
2022/11/22 00:13:40;;;;;;;37.38;5.90;;;;;;;;;;6280605;22;20094;-96
2022/11/22 00:16:07;;;;;;;77.07;10.65;;;;;;;;;;6280318;22;20011;-95
2022/11/22 00:18:34;;;;;;;207.38;14.90;;;;;;;;;;6306122;22;19999;-96
2022/11/22 00:21:06;;;;;;;107.88;9.43;;;;;;;;;;6306243;22;20107;-96
2022/11/22 00:23:32;;;;;;;61.25;7.93;;;;;;;;;;6306294;22;20107;-96
2022/11/22 00:25:57;;;;;;;76.50;7.45;;;;;;;;;;6308271;22;20487;-95
2022/11/22 00:28:22;;;;;;;19.65;3.85;;;;;;;;;;6306490;22;20007;-95
2022/11/22 00:30:48;;;;;;;9.50;3.45;;;;;;;;;;6306001;22;20003;-96
2022/11/22 00:33:13;;;;;;;12.32;3.60;;;;;;;;;;6305633;22;20014;-95
2022/11/22 00:35:38;;;;;;;11.95;3.83;;;;;;;;;;6306308;22;20058;-96
2022/11/22 00:38:04;;;;;;;9.38;2.60;;;;;;;;;;6306537;22;20440;-95
2022/11/22 00:40:30;;;;;;;9.70;2.80;;;;;;;;;;6307701;22;20003;-95
2022/11/22 00:42:55;;;;;;;11.15;3.10;;;;;;;;;;6308790;22;19991;-96
2022/11/22 00:45:25;;;;;;;11.15;2.97;;;;;;;;;;6308153;22;20005;-96
2022/11/22 00:47:50;;;;;;;8.77;2.88;;;;;;;;;;6306836;22;20156;-96
2022/11/22 00:50:15;;;;;;;11.18;3.50;;;;;;;;;;6306833;22;20003;-96
2022/11/22 00:52:46;;;;;;;13.30;3.53;;;;;;;;;;6307055;22;20046;-96
2022/11/22 00:55:38;;;;;;;10.93;4.25;;;;;;;;;;6307735;22;20007;-96
2022/11/22 00:58:11;;;;;;;11.40;3.45;;;;;;;;;;6308955;22;20003;-96
2022/11/22 01:00:38;;;;;;;13.55;3.70;;;;;;;;;;6308923;22;20040;-96
2022/11/22 01:03:05;;;;;;;13.88;3.78;;;;;;;;;;6309040;22;20493;-96
2022/11/22 01:05:30;;;;;;;9.43;3.40;;;;;;;;;;6308645;22;19995;-96
2022/11/22 01:07:55;;;;;;;20.52;3.88;;;;;;;;;;6308454;22;20031;-96
2022/11/22 01:10:21;;;;;;;122.43;9.00;;;;;;;;;;6307984;22;20433;-96
2022/11/22 01:12:57;;;;;;;283.00;15.10;;;;;;;;;;6309479;22;20018;-96
2022/11/22 01:15:22;;;;;;;353.45;22.63;;;;;;;;;;6307659;22;20073;-96
2022/11/22 01:17:48;;;;;;;188.35;13.20;;;;;;;;;;6307626;22;20404;-96
2022/11/22 01:20:13;;;;;;;301.23;19.00;;;;;;;;;;6308009;22;20020;-96
2022/11/22 01:22:42;;;;;;;116.05;8.57;;;;;;;;;;6308478;22;20025;-96
2022/11/22 01:25:10;;;;;;;234.80;15.77;;;;;;;;;;6308864;22;19996;-95
2022/11/22 01:27:36;;;;;;;42.75;5.60;;;;;;;;;;6307927;22;20038;-96
2022/11/22 01:30:02;;;;;;;165.32;12.02;;;;;;;;;;6309530;22;20493;-96
2022/11/22 01:32:27;;;;;;;306.52;20.95;;;;;;;;;;6308104;22;20405;-95
2022/11/22 01:35:05;;;;;;;378.80;23.95;;;;;;;;;;6307563;22;20010;-96
2022/11/22 01:37:31;;;;;;;341.88;21.73;;;;;;;;;;6308210;22;20011;-96
2022/11/22 01:39:56;;;;;;;268.27;17.50;;;;;;;;;;6305861;22;19991;-96
2022/11/22 01:42:21;;;;;;;417.85;26.17;;;;;;;;;;6301944;22;19995;-96
2022/11/22 01:44:47;;;;;;;309.27;21.20;;;;;;;;;;6302318;22;20344;-96
2022/11/22 01:47:23;;;;;;;312.17;19.50;;;;;;;;;;6304461;22;20007;-96
2022/11/22 01:50:03;;;;;;;39.75;5.20;;;;;;;;;;6304928;22;20003;-96
2022/11/22 01:52:30;;;;;;;61.63;6.57;;;;;;;;;;6304295;22;20090;-95
2022/11/22 01:54:58;;;;;;;140.18;11.95;;;;;;;;;;6304631;22;20007;-95
2022/11/22 01:57:26;;;;;;;13.07;3.95;;;;;;;;;;6305284;22;20007;-96
2022/11/22 02:00:04;;;;;;;9.45;3.47;;;;;;;;;;6304713;22;20007;-96
2022/11/22 02:02:30;;;;;;;11.40;3.30;;;;;;;;;;6304985;22;20003;-95
2022/11/22 02:04:57;;;;;;;9.45;2.92;;;;;;;;;;6303680;22;19995;-96
2022/11/22 02:07:32;;;;;;;10.15;2.97;;;;;;;;;;6303969;22;20011;-96
2022/11/22 02:09:58;;;;;;;9.57;2.85;;;;;;;;;;6305198;22;20048;-96
2022/11/22 02:12:26;;;;;;;8.80;2.60;;;;;;;;;;6305513;22;20070;-95
2022/11/22 02:14:55;;;;;;;8.23;2.70;;;;;;;;;;6305368;22;20062;-96
2022/11/22 02:17:20;;;;;;;8.23;2.30;;;;;;;;;;6304801;22;20003;-96
2022/11/22 02:19:49;;;;;;;13.10;2.88;;;;;;;;;;6304188;22;20019;-95
2022/11/22 02:22:38;;;;;;;7.45;2.30;;;;;;;;;;6305775;22;20015;-95
2022/11/22 02:25:03;;;;;;;7.95;2.60;;;;;;;;;;6288915;22;20080;-95
2022/11/22 02:27:28;;;;;;;10.88;3.22;;;;;;;;;;6306609;22;20411;-95
2022/11/22 02:29:54;;;;;;;8.48;2.42;;;;;;;;;;6305496;22;20006;-94
2022/11/22 02:32:20;;;;;;;10.82;2.42;;;;;;;;;;6306897;22;20042;-94
2022/11/22 02:34:50;;;;;;;8.10;2.40;;;;;;;;;;6307175;22;19999;-95
2022/11/22 02:37:21;;;;;;;8.35;3.00;;;;;;;;;;6307109;22;19999;-95
2022/11/22 02:39:55;;;;;;;9.82;2.42;;;;;;;;;;6308403;22;20003;-96
2022/11/22 02:42:24;;;;;;;9.75;2.83;;;;;;;;;;6308754;22;20003;-96
2022/11/22 02:44:50;;;;;;;8.73;2.47;;;;;;;;;;6308576;22;20002;-96
2022/11/22 02:47:15;;;;;;;7.68;2.00;;;;;;;;;;6307506;22;20015;-94
2022/11/22 02:49:41;;;;;;;6.70;2.10;;;;;;;;;;6306315;22;19999;-95
2022/11/22 02:52:06;;;;;;;8.18;2.15;;;;;;;;;;6308276;22;20466;-95
2022/11/22 02:54:31;;;;;;;5.80;1.80;;;;;;;;;;6307285;22;19999;-95
2022/11/22 02:56:57;;;;;;;7.18;2.00;;;;;;;;;;6307990;22;20007;-96
2022/11/22 02:59:22;;;;;;;7.45;2.47;;;;;;;;;;6306597;22;20003;-95
2022/11/22 03:01:49;;;;;;;9.27;2.60;;;;;;;;;;6242275;22;20098;-94
2022/11/22 03:04:23;;;;;;;9.93;2.92;;;;;;;;;;6208091;23;20113;-93
2022/11/22 03:06:52;;;;;;;8.10;2.38;;;;;;;;;;6210832;23;20008;-94
2022/11/22 03:09:17;;;;;;;7.88;2.53;;;;;;;;;;6211935;23;20004;-94
2022/11/22 03:11:43;;;;;;;9.18;2.78;;;;;;;;;;6212148;23;20366;-96
2022/11/22 03:14:08;;;;;;;8.68;2.78;;;;;;;;;;6214092;23;19996;-96
2022/11/22 03:16:33;;;;;;;9.38;3.00;;;;;;;;;;6213439;23;20337;-95
2022/11/22 03:18:59;;;;;;;10.45;3.03;;;;;;;;;;6213710;23;20079;-94
2022/11/22 03:21:24;;;;;;;11.55;3.10;;;;;;;;;;6214337;23;20820;-96
2022/11/22 03:23:49;;;;;;;9.80;3.08;;;;;;;;;;6213600;23;20004;-96
2022/11/22 03:26:15;;;;;;;11.15;3.60;;;;;;;;;;6212605;23;20077;-95
2022/11/22 03:28:40;;;;;;;9.77;2.75;;;;;;;;;;6214117;23;20015;-96
2022/11/22 03:31:08;;;;;;;12.10;3.40;;;;;;;;;;6213039;23;20097;-95
2022/11/22 03:33:34;;;;;;;10.98;3.28;;;;;;;;;;6213431;23;20310;-95
2022/11/22 03:35:59;;;;;;;13.75;3.13;;;;;;;;;;6213258;23;20035;-94
2022/11/22 03:38:28;;;;;;;9.70;2.90;;;;;;;;;;6211132;23;20044;-95
2022/11/22 03:40:54;;;;;;;12.55;3.30;;;;;;;;;;6212696;23;20032;-95
2022/11/22 03:43:19;;;;;;;12.20;3.80;;;;;;;;;;6211928;23;20007;-95
2022/11/22 03:45:45;;;;;;;11.90;3.70;;;;;;;;;;6211656;23;20700;-94
2022/11/22 03:48:11;;;;;;;14.82;4.10;;;;;;;;;;6212369;23;20477;-96
2022/11/22 03:50:36;;;;;;;13.18;3.75;;;;;;;;;;6211111;23;20027;-95
2022/11/22 03:53:02;;;;;;;10.40;3.10;;;;;;;;;;6216892;23;20036;-95
2022/11/22 03:55:27;;;;;;;12.15;3.35;;;;;;;;;;6216072;23;20046;-95
2022/11/22 03:57:52;;;;;;;9.90;3.90;;;;;;;;;;6217476;23;20501;-95
2022/11/22 04:00:18;;;;;;;11.85;3.70;;;;;;;;;;6244854;23;20000;-95
2022/11/22 04:02:43;;;;;;;11.95;3.70;;;;;;;;;;6226608;22;20318;-95
2022/11/22 04:05:12;;;;;;;13.23;4.15;;;;;;;;;;6272492;22;20038;-95
2022/11/22 04:07:37;;;;;;;12.65;3.72;;;;;;;;;;6272300;22;20007;-95
2022/11/22 04:10:03;;;;;;;11.25;3.47;;;;;;;;;;6277382;22;20000;-95
2022/11/22 04:12:29;;;;;;;11.98;3.08;;;;;;;;;;6276723;22;20082;-95
2022/11/22 04:15:06;;;;;;;10.85;3.22;;;;;;;;;;6277716;22;20033;-94
2022/11/22 04:17:46;;;;;;;9.30;2.97;;;;;;;;;;6277303;22;20038;-96
2022/11/22 04:23:11;;;;;;;14.88;2.70;;;;;;;;;;6305561;22;20022;-95
2022/11/22 04:25:38;;;;;;;10.57;3.10;;;;;;;;;;6277867;22;20019;-95
2022/11/22 04:28:04;;;;;;;12.13;3.10;;;;;;;;;;6278031;22;20003;-95
2022/11/22 04:33:16;;;;;;;12.35;2.78;;;;;;;;;;6305244;22;20357;-95
2022/11/22 04:35:41;;;;;;;10.02;2.88;;;;;;;;;;6277412;22;20061;-94
2022/11/22 04:38:07;;;;;;;9.30;2.35;;;;;;;;;;6277385;22;20007;-95
2022/11/22 04:40:41;;;;;;;10.63;2.65;;;;;;;;;;6277408;22;20007;-94
2022/11/22 04:45:58;;;;;;;10.82;2.15;;;;;;;;;;6304901;22;20011;-94
2022/11/22 04:48:39;;;;;;;10.70;2.22;;;;;;;;;;6277864;22;19995;-95
2022/11/22 04:53:51;;;;;;;13.40;2.33;;;;;;;;;;6302871;22;20358;-95
2022/11/22 04:56:17;;;;;;;9.23;2.28;;;;;;;;;;6276757;22;20045;-94
2022/11/22 04:58:42;;;;;;;11.07;2.40;;;;;;;;;;6281705;22;19999;-96
2022/11/22 05:01:11;;;;;;;11.27;1.98;;;;;;;;;;6280177;22;20007;-95
2022/11/22 05:03:40;;;;;;;12.13;2.08;;;;;;;;;;6281048;22;20015;-94
2022/11/22 05:06:05;;;;;;;11.05;2.53;;;;;;;;;;6278871;22;19999;-95
2022/11/22 05:08:36;;;;;;;13.50;2.15;;;;;;;;;;6278165;22;20026;-96
2022/11/22 05:11:01;;;;;;;10.27;2.58;;;;;;;;;;6277053;22;20003;-93
2022/11/22 05:13:31;;;;;;;12.93;2.50;;;;;;;;;;6277711;22;20436;-94
2022/11/22 05:15:57;;;;;;;15.85;2.63;;;;;;;;;;6280387;22;19999;-96
2022/11/22 05:18:26;;;;;;;10.00;2.63;;;;;;;;;;6278904;22;19999;-94
2022/11/22 05:20:51;;;;;;;10.23;1.92;;;;;;;;;;6278617;22;19999;-95
2022/11/22 05:26:04;;;;;;;7.90;2.13;;;;;;;;;;6306955;22;20018;-96
2022/11/22 05:28:33;;;;;;;10.27;2.42;;;;;;;;;;6280372;22;20019;-96
2022/11/22 05:30:58;;;;;;;12.70;2.55;;;;;;;;;;6280487;22;19999;-95
2022/11/22 05:33:23;;;;;;;10.13;1.95;;;;;;;;;;6279053;22;19999;-95
2022/11/22 05:35:49;;;;;;;10.65;2.42;;;;;;;;;;6278669;22;20078;-95
2022/11/22 05:38:14;;;;;;;7.47;1.77;;;;;;;;;;6278781;22;20034;-95
2022/11/22 05:40:39;;;;;;;13.52;2.30;;;;;;;;;;6277913;22;20023;-95
2022/11/22 05:43:06;;;;;;;8.02;2.05;;;;;;;;;;6305420;22;20003;-96
2022/11/22 05:45:32;;;;;;;12.25;2.95;;;;;;;;;;6278820;22;20030;-95
2022/11/22 05:48:00;;;;;;;7.32;2.15;;;;;;;;;;6278006;22;20003;-96
2022/11/22 05:50:26;;;;;;;11.30;2.67;;;;;;;;;;6278299;22;20002;-94
2022/11/22 05:52:51;;;;;;;11.10;2.20;;;;;;;;;;6279784;22;19999;-95
2022/11/22 05:55:17;;;;;;;8.23;1.88;;;;;;;;;;6278974;22;20064;-95
2022/11/22 05:57:46;;;;;;;7.93;2.00;;;;;;;;;;6277441;22;20011;-95
2022/11/22 06:00:11;;;;;;;8.60;2.00;;;;;;;;;;6278209;22;20003;-95
2022/11/22 06:02:39;;;;;;;7.72;1.92;;;;;;;;;;6307140;22;20438;-95
2022/11/22 06:05:04;;;;;;;13.48;2.17;;;;;;;;;;6278751;22;20000;-95
2022/11/22 06:07:30;;;;;;;10.55;2.38;;;;;;;;;;6279082;22;20340;-95
2022/11/22 06:09:57;;;;;;;11.55;2.28;;;;;;;;;;6305458;22;20079;-95
2022/11/22 06:12:26;;;;;;;86.30;13.85;;;;;;;;;;6277977;22;20122;-94
2022/11/22 06:14:51;;;;;;;610.75;74.97;;;;;;;;;;6278210;22;20014;-95
2022/11/22 06:17:17;;;;;;;59.70;6.10;;;;;;;;;;6277858;22;20460;-95
2022/11/22 06:19:43;;;;;;;17.08;2.53;;;;;;;;;;6277104;22;19999;-95
2022/11/22 06:22:09;;;;;;;61.05;4.85;;;;;;;;;;6304639;22;20332;-94
2022/11/22 06:24:37;;;;;;;64.18;6.10;;;;;;;;;;6277235;22;20023;-95
2022/11/22 06:27:05;;;;;;;80.78;5.53;;;;;;;;;;6278562;22;19999;-95
2022/11/22 06:29:31;;;;;;;63.80;4.70;;;;;;;;;;6277246;22;20090;-95
2022/11/22 06:31:56;;;;;;;54.95;4.07;;;;;;;;;;6279708;22;20039;-95
2022/11/22 06:34:28;;;;;;;11.00;1.77;;;;;;;;;;6280904;22;20013;-96
2022/11/22 06:36:56;;;;;;;14.40;1.88;;;;;;;;;;6278372;22;20759;-96
2022/11/22 06:39:32;;;;;;;123.82;10.00;;;;;;;;;;6279422;22;20018;-95
2022/11/22 06:42:13;;;;;;;179.90;16.13;;;;;;;;;;6280718;22;20034;-95
2022/11/22 06:44:43;;;;;;;77.57;6.18;;;;;;;;;;6308272;22;20004;-96
2022/11/22 06:47:16;;;;;;;61.05;5.95;;;;;;;;;;6281014;22;20007;-95
2022/11/22 06:49:50;;;;;;;446.63;35.40;;;;;;;;;;6307653;22;20113;-96
2022/11/22 06:52:15;;;;;;;20.67;3.17;;;;;;;;;;6280590;22;20011;-95
2022/11/22 06:54:41;;;;;;;24.67;3.00;;;;;;;;;;6279952;22;20003;-95
2022/11/22 06:57:12;;;;;;;11.10;2.15;;;;;;;;;;6280391;22;20009;-95
2022/11/22 06:59:37;;;;;;;11.90;2.08;;;;;;;;;;6280727;22;20072;-96
2022/11/22 07:02:09;;;;;;;9.32;1.98;;;;;;;;;;6280336;22;19999;-95
2022/11/22 07:04:35;;;;;;;245.25;16.70;;;;;;;;;;6279942;22;20018;-96
2022/11/22 07:07:03;;;;;;;11.52;2.17;;;;;;;;;;6279644;22;20344;-94
2022/11/22 07:09:37;;;;;;;10.27;2.05;;;;;;;;;;6279984;22;20007;-96
2022/11/22 07:12:03;;;;;;;7.32;2.00;;;;;;;;;;6280159;22;20327;-95
2022/11/22 07:14:36;;;;;;;14.52;2.55;;;;;;;;;;6279901;22;20014;-96
2022/11/22 07:17:09;;;;;;;10.95;2.50;;;;;;;;;;6281322;22;19999;-95
2022/11/22 07:19:37;;;;;;;174.18;12.30;;;;;;;;;;6280278;22;20041;-94
2022/11/22 07:22:07;;;;;;;16.52;2.55;;;;;;;;;;6280105;22;20038;-96
2022/11/22 07:24:32;;;;;;;10.70;2.28;;;;;;;;;;6280516;22;20049;-95
2022/11/22 07:27:10;;;;;;;71.38;6.25;;;;;;;;;;6281589;22;20654;-96
2022/11/22 07:29:51;;;;;;;118.82;8.52;;;;;;;;;;6281936;22;20086;-94
2022/11/22 07:32:51;;;;;;;28.20;3.50;;;;;;;;;;6288057;22;20424;-96
2022/11/22 07:35:49;;;;;;;;;;;;;;;;;;;;;
2022/11/22 07:38:36;;;;;;;13.35;2.45;;;;;;;;;;6311401;22;20050;-96
2022/11/22 07:41:00;;;;;;;12.40;2.67;;;;;;;;;;6311359;22;20006;-96
2022/11/22 07:43:30;;;;;;;20.42;2.85;;;;;;;;;;6286910;22;19995;-96
2022/11/22 07:46:19;;;;;;;23.63;3.28;;;;;;;;;;6282100;22;20014;-95
2022/11/22 07:51:34;;;;;;;20.77;3.13;;;;;;;;;;6309902;22;20014;-96
2022/11/22 07:54:02;;;;;;;15.98;2.80;;;;;;;;;;6285625;22;20056;-95
2022/11/22 07:56:27;;;;;;;15.25;2.72;;;;;;;;;;6284207;22;20004;-96
2022/11/22 07:58:55;;;;;;;20.60;3.22;;;;;;;;;;6281795;22;20044;-95
2022/11/22 08:01:20;;;;;;;15.35;2.58;;;;;;;;;;6287193;22;19995;-95
2022/11/22 08:03:46;;;;;;;54.67;5.72;;;;;;;;;;6281862;22;20015;-96
2022/11/22 08:06:13;;;;;;;23.80;2.75;;;;;;;;;;6279848;22;20023;-93
2022/11/22 08:08:39;;;;;;;24.05;3.30;;;;;;;;;;6274792;22;20086;-94
2022/11/22 08:11:04;;;;;;;10.18;2.35;;;;;;;;;;6275949;22;20053;-94
2022/11/22 08:13:37;;;;;;;31.88;3.83;;;;;;;;;;6275818;22;20370;-94
2022/11/22 08:16:04;;;;;;;22.30;3.70;;;;;;;;;;6275623;22;20380;-95
2022/11/22 08:18:29;;;;;;;23.23;3.20;;;;;;;;;;6276394;22;20007;-94
2022/11/22 08:21:14;;;;;;;15.55;2.90;;;;;;;;;;6276607;22;20707;-94
2022/11/22 08:23:41;;;;;;;16.48;3.17;;;;;;;;;;6276632;22;20006;-92
2022/11/22 08:26:08;;;;;;;11.90;2.97;;;;;;;;;;6272190;22;20006;-94
2022/11/22 08:28:34;;;;;;;23.63;3.88;;;;;;;;;;6301362;22;20340;-92
2022/11/22 08:31:00;;;;;;;17.13;2.75;;;;;;;;;;6301041;22;19996;-93
2022/11/22 08:33:25;;;;;;;35.78;4.05;;;;;;;;;;6272859;22;20007;-94
2022/11/22 08:35:51;;;;;;;11.70;2.40;;;;;;;;;;6301847;22;20003;-94
2022/11/22 08:38:22;;;;;;;12.30;2.40;;;;;;;;;;6273439;22;20011;-93
2022/11/22 08:40:47;;;;;;;19.98;3.28;;;;;;;;;;6301088;22;20066;-95
2022/11/22 08:43:12;;;;;;;20.58;2.85;;;;;;;;;;6274981;22;19999;-93
2022/11/22 08:45:41;;;;;;;17.52;2.55;;;;;;;;;;6302042;22;19991;-93
2022/11/22 08:48:06;;;;;;;31.33;3.63;;;;;;;;;;6272333;22;20692;-94
2022/11/22 08:50:41;;;;;;;57.08;4.85;;;;;;;;;;6273768;22;19999;-93
2022/11/22 08:53:06;;;;;;;28.60;3.80;;;;;;;;;;6301314;22;20018;-91
2022/11/22 08:55:38;;;;;;;37.28;3.67;;;;;;;;;;6302116;22;20007;-96
2022/11/22 08:58:48;;;;;;;54.33;4.72;;;;;;;;;;6277282;22;20007;-96
2022/11/22 09:01:31;;;;;;;23.33;3.63;;;;;;;;;;6147084;23;20009;-96
2022/11/22 09:03:56;;;;;;;13.02;2.60;;;;;;;;;;6178571;23;20522;-96
2022/11/22 09:06:24;;;;;;;12.25;2.60;;;;;;;;;;6171207;23;20021;-96
2022/11/22 09:08:51;;;;;;;16.23;2.88;;;;;;;;;;6182001;23;20016;-93
2022/11/22 09:11:20;;;;;;;10.27;2.25;;;;;;;;;;6183344;23;20019;-94
2022/11/22 09:13:49;;;;;;;12.25;2.90;;;;;;;;;;6182404;23;20008;-94
2022/11/22 09:16:19;;;;;;;26.35;3.30;;;;;;;;;;6184099;23;20016;-94
2022/11/22 09:18:50;;;;;;;13.45;2.80;;;;;;;;;;6183685;23;20019;-94
2022/11/22 09:21:21;;;;;;;12.00;2.92;;;;;;;;;;6182797;23;20072;-94
2022/11/22 09:24:01;;;;;;;31.80;3.95;;;;;;;;;;6181510;23;20091;-94
2022/11/22 09:26:31;;;;;;;9.82;2.60;;;;;;;;;;6209098;23;20064;-95
2022/11/22 09:28:57;;;;;;;16.02;3.08;;;;;;;;;;6183861;23;20004;-94
2022/11/22 09:31:26;;;;;;;13.07;2.92;;;;;;;;;;6207391;23;20004;-95
2022/11/22 09:33:52;;;;;;;17.35;3.35;;;;;;;;;;6183403;23;20067;-95
2022/11/22 09:36:19;;;;;;;69.15;6.18;;;;;;;;;;6300719;22;20039;-95
2022/11/22 09:38:45;;;;;;;18.15;3.90;;;;;;;;;;6301429;22;20006;-95
2022/11/22 09:41:16;;;;;;;29.42;4.53;;;;;;;;;;6300707;22;20004;-95
2022/11/22 09:44:00;;;;;;;18.33;3.00;;;;;;;;;;6303156;22;20496;-95
2022/11/22 09:46:42;;;;;;;16.15;3.13;;;;;;;;;;6277014;22;20089;-94
2022/11/22 09:49:29;;;;;;;12.40;2.80;;;;;;;;;;6274834;22;20445;-95
2022/11/22 09:51:57;;;;;;;11.25;3.00;;;;;;;;;;6274180;22;20064;-95
2022/11/22 09:54:29;;;;;;;11.68;3.00;;;;;;;;;;6275400;22;20030;-95
2022/11/22 09:57:01;;;;;;;10.05;2.42;;;;;;;;;;6273736;22;20007;-95
2022/11/22 09:59:31;;;;;;;15.35;3.58;;;;;;;;;;6275294;22;20082;-94
2022/11/22 10:02:11;;;;;;;14.07;2.90;;;;;;;;;;6274788;22;19991;-95
2022/11/22 10:04:39;;;;;;;12.48;3.35;;;;;;;;;;6276035;22;20074;-95
2022/11/22 10:07:10;;;;;;;12.95;2.78;;;;;;;;;;6277718;22;20039;-95
2022/11/22 10:09:51;;;;;;;12.75;2.85;;;;;;;;;;6305644;22;20007;-95
2022/11/22 10:12:31;;;;;;;103.63;8.48;;;;;;;;;;6304250;22;20021;-94
2022/11/22 10:15:12;;;;;;;13.40;3.60;;;;;;;;;;6294600;22;20011;-94
2022/11/22 10:17:58;;;;;;;14.55;2.90;;;;;;;;;;6305888;22;20010;-94
2022/11/22 10:20:26;;;;;;;127.43;9.25;;;;;;;;;;6303677;22;20189;-96
2022/11/22 10:22:56;;;;;;;11.93;2.60;;;;;;;;;;6306648;22;20002;-96
2022/11/22 10:25:38;;;;;;;16.85;2.72;;;;;;;;;;6311164;22;19999;-95
2022/11/22 10:28:23;;;;;;;11.25;2.85;;;;;;;;;;6294437;22;20022;-93
2022/11/22 10:31:06;;;;;;;13.85;2.65;;;;;;;;;;6308796;22;19999;-95
2022/11/22 10:33:48;;;;;;;14.60;2.95;;;;;;;;;;6308577;22;20021;-94
2022/11/22 10:36:24;;;;;;;12.23;2.58;;;;;;;;;;6309367;22;20114;-94
2022/11/22 10:39:08;;;;;;;10.60;2.92;;;;;;;;;;6309249;22;19995;-94
2022/11/22 10:42:02;;;;;;;10.65;2.33;;;;;;;;;;6308995;22;19999;-94
2022/11/22 10:44:59;;;;;;;9.35;2.25;;;;;;;;;;6256688;22;20030;-96
2022/11/22 10:47:35;;;;;;;12.02;2.60;;;;;;;;;;6308811;22;20031;-96
2022/11/22 10:50:00;;;;;;;13.45;2.67;;;;;;;;;;6333116;22;20010;-95
2022/11/22 10:52:37;;;;;;;9.57;2.50;;;;;;;;;;6309407;22;20441;-95
2022/11/22 10:55:21;;;;;;;8.77;2.22;;;;;;;;;;6311707;22;20007;-94
2022/11/22 10:58:16;;;;;;;10.57;2.30;;;;;;;;;;6309158;22;20316;-95
2022/11/22 11:00:48;;;;;;;10.32;2.70;;;;;;;;;;6312233;22;20005;-95
2022/11/22 11:03:33;;;;;;;13.43;2.70;;;;;;;;;;6314440;22;20154;-96
2022/11/22 11:06:36;;;;;;;12.95;2.55;;;;;;;;;;6312162;22;20007;-96
2022/11/22 11:09:17;;;;;;;16.90;2.97;;;;;;;;;;6311317;22;20064;-95
2022/11/22 11:11:44;;;;;;;12.77;2.75;;;;;;;;;;6311712;22;20007;-95
2022/11/22 11:14:25;;;;;;;11.95;3.17;;;;;;;;;;6311631;22;20071;-96
2022/11/22 11:16:51;;;;;;;12.30;2.40;;;;;;;;;;6310330;22;20698;-95
2022/11/22 11:19:18;;;;;;;9.80;2.45;;;;;;;;;;6310018;22;19997;-95
2022/11/22 11:21:44;;;;;;;10.52;2.38;;;;;;;;;;6311729;22;20010;-96
2022/11/22 11:24:46;;;;;;;13.63;2.90;;;;;;;;;;6338809;22;20007;-96
2022/11/22 11:27:18;;;;;;;10.85;2.08;;;;;;;;;;6212771;23;20079;-96
2022/11/22 11:30:02;;;;;;;11.50;2.47;;;;;;;;;;6186288;23;20236;-96
2022/11/22 11:32:28;;;;;;;9.75;2.42;;;;;;;;;;6186376;23;20445;-95
2022/11/22 11:35:01;;;;;;;10.35;2.30;;;;;;;;;;6187556;23;20028;-96
2022/11/22 11:37:49;;;;;;;10.90;2.58;;;;;;;;;;6225036;22;20027;-96
2022/11/22 11:40:41;;;;;;;13.68;2.50;;;;;;;;;;6239728;23;20012;-95
2022/11/22 11:46:51;;;;;;;11.65;2.08;;;;;;;;;;6240803;23;20000;-96
2022/11/22 11:49:56;;;;;;;16.83;2.80;;;;;;;;;;6096923;23;20013;-96
2022/11/22 11:53:18;;;;;;;;;;;;;;;;;;;;;
2022/11/22 11:56:19;;;;;;;10.17;2.37;;;;;;;;;;6124154;23;20081;-96
2022/11/22 12:05:34;;;;;;;13.68;2.22;;;;;;;;;;6139769;23;20076;-95
2022/11/22 12:08:27;;;;;;;12.07;2.10;;;;;;;;;;6158211;23;20005;-96
2022/11/22 12:11:26;;;;;;;9.18;2.10;;;;;;;;;;6190078;23;20055;-95
2022/11/22 12:20:42;;;;;;;11.45;2.05;;;;;;;;;;6213799;23;20008;-95
2022/11/22 12:27:08;;;;;;;7.85;1.77;;;;;;;;;;6207796;23;20062;-96
2022/11/22 12:29:56;;;;;;;14.05;2.13;;;;;;;;;;6190537;23;20054;-96
2022/11/22 12:36:46;;;;;;;12.10;1.90;;;;;;;;;;6218736;23;20031;-96
2022/11/22 12:39:17;;;;;;;8.60;2.03;;;;;;;;;;6211803;22;20020;-95
2022/11/22 12:41:54;;;;;;;12.52;2.00;;;;;;;;;;6250926;22;20030;-95
2022/11/22 12:44:20;;;;;;;9.82;2.22;;;;;;;;;;6262311;22;19995;-95
2022/11/22 12:46:58;;;;;;;9.93;1.95;;;;;;;;;;6257565;22;20004;-95
2022/11/22 12:49:59;;;;;;;9.40;1.58;;;;;;;;;;6286255;22;20063;-96
2022/11/22 12:52:36;;;;;;;11.75;2.08;;;;;;;;;;6266825;22;20018;-96
2022/11/22 12:55:44;;;;;;;;;;;;;;;;;;;;;
2022/11/22 12:58:39;;;;;;;11.07;1.90;;;;;;;;;;6232318;22;20030;-96
2022/11/22 13:01:26;;;;;;;13.43;2.20;;;;;;;;;;6271676;22;20008;-96
2022/11/22 13:04:20;;;;;;;14.55;2.03;;;;;;;;;;6284022;22;20003;-96
2022/11/22 13:06:48;;;;;;;;;;;;;;;;;;6210313;22;20007;-96
2022/11/22 13:09:19;;;;;;;9.20;1.50;;;;;;;;;;6253233;22;19907;-95
2022/11/22 13:12:03;;;;;;;9.10;1.77;;;;;;;;;;6251171;22;20012;-96
2022/11/22 13:14:37;;;;;;;;;;;;;;;;;;6257287;22;19999;-96
2022/11/22 13:20:03;;;;;;;9.30;1.85;;;;;;;;;;6272899;22;20031;-95
2022/11/22 13:23:05;;;;;;;12.70;2.00;;;;;;;;;;6173278;22;19998;-96
2022/11/22 13:25:58;;;;;;;8.82;2.00;;;;;;;;;;6253335;22;20008;-95
2022/11/22 13:28:47;;;;;;;12.43;2.00;;;;;;;;;;6252770;22;20027;-96
2022/11/22 13:31:26;;;;;;;10.10;1.75;;;;;;;;;;6242165;22;20137;-96
2022/11/22 13:34:04;;;;;;;10.55;1.92;;;;;;;;;;6283434;22;19995;-96
2022/11/22 13:36:45;;;;;;;10.02;1.67;;;;;;;;;;6251925;22;20025;-95
2022/11/22 13:45:09;;;;;;;7.43;1.60;;;;;;;;;;6312201;22;20019;-96
2022/11/22 13:47:52;;;;;;;10.20;1.77;;;;;;;;;;6286615;22;20057;-96
2022/11/22 13:50:38;;;;;;;9.82;1.95;;;;;;;;;;6302823;22;20000;-96
2022/11/22 13:59:19;;;;;;;11.07;1.65;;;;;;;;;;6283457;22;20031;-96
2022/11/22 14:01:47;;;;;;;7.40;1.80;;;;;;;;;;6261376;22;20008;-96
2022/11/22 14:07:38;;;;;;;9.57;1.55;;;;;;;;;;6286846;22;20069;-96
2022/11/22 14:13:10;;;;;;;7.15;1.33;;;;;;;;;;6286731;22;19999;-96
2022/11/22 14:15:37;;;;;;;8.85;2.03;;;;;;;;;;6253627;22;20003;-96
2022/11/22 14:18:03;;;;;;;5.55;1.20;;;;;;;;;;6255320;22;20063;-95
2022/11/22 14:20:44;;;;;;;9.10;2.22;;;;;;;;;;6261547;22;20178;-96
2022/11/22 14:23:09;;;;;;;9.30;1.42;;;;;;;;;;6260210;22;20035;-96
2022/11/22 14:31:26;;;;;;;8.80;1.50;;;;;;;;;;6287372;22;20031;-95
2022/11/22 14:34:12;;;;;;;6.40;1.30;;;;;;;;;;6261532;22;20047;-96
2022/11/22 14:36:37;;;;;;;6.55;1.42;;;;;;;;;;6285227;22;20011;-96
2022/11/22 14:39:25;;;;;;;8.32;2.33;;;;;;;;;;6307703;22;20429;-96
2022/11/22 14:41:53;;;;;;;5.68;1.48;;;;;;;;;;6274223;22;20090;-93
2022/11/22 14:44:20;;;;;;;7.97;1.60;;;;;;;;;;6246479;22;20019;-94
2022/11/22 14:46:45;;;;;;;8.52;1.50;;;;;;;;;;6246587;22;20000;-95
2022/11/22 14:49:29;;;;;;;7.43;1.10;;;;;;;;;;6246593;22;20035;-94
2022/11/22 14:51:56;;;;;;;6.47;1.20;;;;;;;;;;6246510;22;20221;-93
2022/11/22 14:54:23;;;;;;;6.57;1.17;;;;;;;;;;6275910;22;20099;-94
2022/11/22 14:56:49;;;;;;;11.10;1.35;;;;;;;;;;6247561;22;20012;-94
2022/11/22 14:59:18;;;;;;;8.90;1.20;;;;;;;;;;6248804;22;20433;-94
2022/11/22 15:01:43;;;;;;;6.55;1.05;;;;;;;;;;6248623;22;20369;-94
2022/11/22 15:04:11;;;;;;;8.40;1.30;;;;;;;;;;6247802;22;20085;-95
2022/11/22 15:06:36;;;;;;;6.40;1.45;;;;;;;;;;6248858;22;20004;-95
2022/11/22 15:09:11;;;;;;;7.43;1.50;;;;;;;;;;6248869;22;20410;-95
2022/11/22 15:11:56;;;;;;;5.05;1.02;;;;;;;;;;6249997;22;20236;-94
2022/11/22 15:14:21;;;;;;;5.35;1.20;;;;;;;;;;6248845;22;20401;-95
2022/11/22 15:16:50;;;;;;;5.77;1.20;;;;;;;;;;6248410;22;19995;-95
2022/11/22 15:19:37;;;;;;;6.80;1.45;;;;;;;;;;6247699;22;20233;-95
2022/11/22 15:22:08;;;;;;;5.13;1.35;;;;;;;;;;6248367;22;19992;-94
2022/11/22 15:24:37;;;;;;;5.32;1.00;;;;;;;;;;6247432;22;19996;-94
2022/11/22 15:27:27;;;;;;;;;;;;;;;;;;;;;
2022/11/22 15:30:20;;;;;;;5.88;1.10;;;;;;;;;;6208606;22;20078;-95
2022/11/22 15:33:32;;;;;;;7.70;1.20;;;;;;;;;;6277441;22;20459;-94
2022/11/22 15:36:01;;;;;;;8.05;1.20;;;;;;;;;;6295492;22;19995;-94
2022/11/22 15:38:31;;;;;;;6.18;1.30;;;;;;;;;;6205825;23;20095;-94
2022/11/22 15:41:33;;;;;;;;;;;;;;;;;;;;;
2022/11/22 15:44:06;;;;;;;6.72;1.42;;;;;;;;;;6179244;23;20104;-95
2022/11/22 15:47:08;;;;;;;5.47;1.35;;;;;;;;;;6155115;23;20001;-93
2022/11/22 15:49:33;;;;;;;10.82;1.40;;;;;;;;;;6149816;23;20002;-95
2022/11/22 15:52:21;;;;;;;6.95;1.30;;;;;;;;;;6153171;23;20083;-95
2022/11/22 15:55:09;;;;;;;7.05;1.20;;;;;;;;;;6207321;23;20012;-95
2022/11/22 15:57:53;;;;;;;8.90;1.45;;;;;;;;;;6155969;23;20084;-96
2022/11/22 16:00:42;;;;;;;9.38;1.77;;;;;;;;;;6155294;23;20465;-96
2022/11/22 16:06:36;;;;;;;8.43;2.22;;;;;;;;;;6093020;23;20014;-96
2022/11/22 16:12:36;;;;;;;7.03;2.17;;;;;;;;;;6007789;23;20016;-94
2022/11/22 16:15:20;;;;;;;7.07;1.90;;;;;;;;;;5990589;23;20003;-95
2022/11/22 16:18:17;;;;;;;10.40;2.17;;;;;;;;;;6011888;23;20555;-94
2022/11/22 16:21:03;;;;;;;7.40;2.00;;;;;;;;;;5873779;24;20026;-95
2022/11/22 16:23:36;;;;;;;8.07;2.08;;;;;;;;;;5998883;23;20007;-95
2022/11/22 16:26:36;;;;;;;10.85;2.03;;;;;;;;;;6037862;23;20133;-94